LiveATC.Net - Listen to live air traffic control over the Internet!


ICAO: EHMM  IATA:   Airport: Middenmeer Aerodrome
City: Middenmeer
Country: Netherlands   Continent: Europe
EHKD METAR Weather: EHKD 160555Z AUTO 19009KT 9000 BR NCD 04/03 Q1022 BLU 20010KT 8000 NSC
EHMM Flight Activity (FlightAware)

EHMM CTAF
Feed Status: UP   Listeners: 0
Listen in your browser - HTML5 player (in browser, HTML5)
Click here to listen with your own player (launches your MP3 player)
EHMM CTAF Audio Archives
FacilityFrequency
Middenmeer CTAF123.425

NOTICE

Unauthorized use prohibited. See LiveATC.net Terms of Service


Find LiveATC Audio Streams


Airport/ARTCC Code

Frequency Search
(e.g., 124.400, 128.75)
Site-wide search
 


Browse LiveATC Feeds
Top 50 LiveATC Feeds
LiveATC Feed Map
Bad Weather Areas

LiveATC FAQ
Offer LiveATC feed
Contact LiveATC.net
Press Inquiries

LiveATC on iPhone
LiveATC on Android

Windows Phone
Windows 8/10

LiveATC Mobile
(Mobile browser)

ATC Audio Archives
Interesting Recordings

LiveATC Forums


Home Page
About LiveATC.net
Make a Donation
Terms of Use
Privacy Policy

Canadian Air Freqs

AIRMETs/SIGMETs

FAA Airport Status
Nat'l Airspace Status
Arrival Demand Charts


Server Software By:
Icecast.org
Liquidsoap